Time;durP1;ratioP1;P1;durP2;ratioP2;P2;SDS_P1;SDS_P2;PMS_P1;PMS_P2;Temp;Humidity;BMP_temperature;BMP_pressure;BME280_temperature;BME280_humidity;BME280_pressure;Samples;Min_cycle;Max_cycle;Signal;HPM_P1;HPM_P2
2021/09/13 00:01:08;;;;;;;4.65;3.72;;;15.30;90.70;;;;;;5030757;28;20025;-66
2021/09/13 00:03:33;;;;;;;5.85;3.67;;;15.30;90.80;;;;;;5030293;28;20026;-66
2021/09/13 00:05:59;;;;;;;5.80;4.00;;;15.30;90.80;;;;;;5013401;28;20103;-66
2021/09/13 00:08:24;;;;;;;4.50;4.00;;;15.30;90.80;;;;;;5013355;28;20424;-66
2021/09/13 00:10:50;;;;;;;5.55;4.47;;;15.30;90.80;;;;;;5031030;28;20017;-66
2021/09/13 00:13:16;;;;;;;7.55;4.28;;;15.20;90.80;;;;;;5030652;28;20036;-66
2021/09/13 00:15:42;;;;;;;6.90;4.53;;;15.30;90.90;;;;;;5030807;28;20033;-66
2021/09/13 00:18:08;;;;;;;7.68;4.43;;;15.30;91.00;;;;;;5012736;28;20037;-66
2021/09/13 00:20:34;;;;;;;5.80;4.30;;;15.30;91.10;;;;;;5030911;28;20143;-66
2021/09/13 00:23:00;;;;;;;5.43;4.72;;;15.30;91.10;;;;;;5030453;28;20022;-66
2021/09/13 00:25:25;;;;;;;6.13;5.00;;;15.30;91.10;;;;;;5031049;28;20064;-66
2021/09/13 00:27:53;;;;;;;6.85;5.47;;;15.40;91.10;;;;;;5030411;28;20028;-66
2021/09/13 00:30:18;;;;;;;6.25;5.13;;;15.40;91.10;;;;;;5030276;28;20117;-66
2021/09/13 00:32:44;;;;;;;8.70;5.63;;;15.40;91.10;;;;;;5030222;28;20101;-66
2021/09/13 00:35:10;;;;;;;8.40;6.15;;;15.40;91.10;;;;;;5012833;28;20057;-66
2021/09/13 00:37:35;;;;;;;8.85;6.47;;;15.40;91.20;;;;;;5018521;28;20076;-66
2021/09/13 00:40:01;;;;;;;8.10;6.80;;;15.30;91.30;;;;;;5010921;28;20112;-66
2021/09/13 00:42:26;;;;;;;8.50;6.63;;;15.30;91.30;;;;;;5010781;28;20026;-66
2021/09/13 00:44:54;;;;;;;10.00;6.40;;;15.20;91.40;;;;;;5011461;28;20344;-66
2021/09/13 00:47:20;;;;;;;8.65;6.45;;;15.10;91.50;;;;;;5030371;28;20112;-66
2021/09/13 00:49:46;;;;;;;7.90;5.95;;;15.10;91.60;;;;;;5027477;28;20473;-66
2021/09/13 00:52:13;;;;;;;8.18;6.13;;;15.10;91.70;;;;;;5029649;28;20026;-66
2021/09/13 00:54:40;;;;;;;7.93;6.90;;;15.10;91.60;;;;;;5020005;28;20394;-66
2021/09/13 00:57:06;;;;;;;9.63;6.53;;;15.10;91.90;;;;;;5030466;28;20097;-66
2021/09/13 00:59:32;;;;;;;9.23;6.82;;;15.10;91.70;;;;;;5029877;28;20028;-66
2021/09/13 01:01:58;;;;;;;9.98;6.38;;;15.10;91.70;;;;;;5029394;28;20030;-66
2021/09/13 01:04:24;;;;;;;8.98;6.10;;;15.10;91.70;;;;;;5029612;28;20051;-66
2021/09/13 01:06:49;;;;;;;8.30;6.68;;;15.10;91.70;;;;;;5030118;28;20025;-66
2021/09/13 01:09:16;;;;;;;7.72;6.20;;;15.10;91.80;;;;;;5030221;28;20084;-66
2021/09/13 01:11:42;;;;;;;8.45;6.47;;;15.00;91.80;;;;;;5032469;28;20041;-66
2021/09/13 01:14:08;;;;;;;10.32;5.80;;;15.10;91.90;;;;;;5033724;28;20501;-66
2021/09/13 01:16:34;;;;;;;7.18;5.05;;;15.00;91.90;;;;;;5034484;28;20034;-66
2021/09/13 01:18:59;;;;;;;6.35;5.13;;;15.00;91.90;;;;;;5016547;28;20116;-66
2021/09/13 01:21:27;;;;;;;8.18;4.55;;;14.90;92.00;;;;;;5033435;28;20057;-66
2021/09/13 01:23:53;;;;;;;5.88;4.38;;;14.80;92.10;;;;;;5033664;28;20028;-66
2021/09/13 01:26:19;;;;;;;4.97;4.13;;;14.80;92.20;;;;;;5034141;28;20026;-66
2021/09/13 01:28:45;;;;;;;4.50;4.07;;;14.70;92.10;;;;;;5033964;28;20064;-66
2021/09/13 01:31:11;;;;;;;5.82;4.40;;;14.70;92.10;;;;;;5032802;28;20061;-66
2021/09/13 01:33:37;;;;;;;4.45;4.05;;;14.70;92.10;;;;;;5033567;28;20132;-66
2021/09/13 01:36:03;;;;;;;4.95;3.55;;;14.70;92.10;;;;;;5033789;28;20449;-66
2021/09/13 01:38:31;;;;;;;4.20;3.80;;;14.70;92.10;;;;;;5033990;28;20531;-66
2021/09/13 01:40:56;;;;;;;4.80;3.80;;;14.70;92.10;;;;;;5032489;28;20437;-66
2021/09/13 01:43:22;;;;;;;5.60;4.20;;;14.70;92.10;;;;;;5033468;28;20029;-66
2021/09/13 01:45:48;;;;;;;6.25;4.43;;;14.70;92.10;;;;;;5033742;28;20037;-66
2021/09/13 01:48:14;;;;;;;4.75;4.30;;;14.70;92.30;;;;;;5016306;28;20029;-66
2021/09/13 01:50:40;;;;;;;6.03;4.43;;;14.70;92.10;;;;;;5023298;28;20482;-66
2021/09/13 01:53:06;;;;;;;5.20;4.47;;;14.70;92.20;;;;;;5014410;28;20497;-66
2021/09/13 01:55:31;;;;;;;6.40;4.85;;;14.60;92.20;;;;;;5013644;28;20030;-66
2021/09/13 01:57:57;;;;;;;5.30;4.10;;;14.60;92.20;;;;;;5013737;28;20026;-66
2021/09/13 02:00:23;;;;;;;5.85;4.15;;;14.60;92.30;;;;;;5013488;28;20049;-66
2021/09/13 02:02:48;;;;;;;5.28;4.50;;;14.50;92.30;;;;;;5026706;28;20049;-66
2021/09/13 02:05:14;;;;;;;4.32;3.70;;;14.50;92.40;;;;;;5032228;28;20155;-66
2021/09/13 02:07:39;;;;;;;6.25;3.72;;;14.40;92.50;;;;;;5033272;28;20031;-66
2021/09/13 02:10:06;;;;;;;3.72;3.42;;;14.40;92.60;;;;;;5015887;28;20021;-66
2021/09/13 02:12:32;;;;;;;5.70;3.25;;;14.30;92.50;;;;;;5033009;28;20039;-66
2021/09/13 02:14:58;;;;;;;4.55;3.13;;;14.40;92.60;;;;;;5032696;28;20686;-66
2021/09/13 02:17:24;;;;;;;3.85;3.20;;;14.30;92.60;;;;;;5033224;28;20047;-66
2021/09/13 02:19:49;;;;;;;3.63;3.33;;;14.40;92.60;;;;;;5015445;28;20021;-66
2021/09/13 02:22:16;;;;;;;4.07;3.67;;;14.40;92.60;;;;;;5031947;28;20389;-66
2021/09/13 02:24:42;;;;;;;3.78;3.03;;;14.40;92.50;;;;;;5032657;28;20036;-66
2021/09/13 02:27:07;;;;;;;3.85;3.35;;;14.50;92.50;;;;;;5032713;28;20025;-66
2021/09/13 02:29:33;;;;;;;5.53;3.55;;;14.50;92.50;;;;;;5032648;28;20025;-66
2021/09/13 02:31:59;;;;;;;3.90;3.30;;;14.50;92.40;;;;;;5032786;28;20036;-66
2021/09/13 02:34:25;;;;;;;3.22;2.97;;;14.50;92.50;;;;;;5014695;28;20034;-66
2021/09/13 02:36:51;;;;;;;4.15;2.83;;;14.50;92.50;;;;;;5032885;28;20394;-66
2021/09/13 02:39:16;;;;;;;5.30;2.85;;;14.50;92.50;;;;;;5027348;22;20060;-66
2021/09/13 02:41:42;;;;;;;4.18;2.80;;;14.50;92.40;;;;;;5020239;28;20410;-66
2021/09/13 02:44:07;;;;;;;2.88;2.20;;;14.50;92.40;;;;;;5012134;28;20393;-66
2021/09/13 02:46:33;;;;;;;3.15;2.60;;;14.50;92.40;;;;;;5028887;28;20374;-66
2021/09/13 02:48:58;;;;;;;3.20;2.90;;;14.40;92.40;;;;;;5032476;28;20044;-66
2021/09/13 02:51:24;;;;;;;6.32;3.30;;;14.50;92.50;;;;;;5030089;28;20033;-66
2021/09/13 02:53:50;;;;;;;4.63;3.17;;;14.50;92.50;;;;;;5031681;28;20025;-66
2021/09/13 02:56:15;;;;;;;3.95;2.70;;;14.40;92.50;;;;;;5032058;28;20049;-66
2021/09/13 02:58:41;;;;;;;3.63;3.28;;;14.40;92.60;;;;;;5031984;28;20025;-66
2021/09/13 03:01:07;;;;;;;4.00;2.90;;;14.30;92.60;;;;;;5032394;28;20064;-66
2021/09/13 03:03:32;;;;;;;3.55;3.25;;;14.30;92.70;;;;;;5031376;28;20035;-66
2021/09/13 03:05:58;;;;;;;4.45;3.00;;;14.30;92.60;;;;;;5032138;28;20532;-66
2021/09/13 03:08:23;;;;;;;3.92;2.65;;;14.20;92.60;;;;;;5032265;28;20025;-66
2021/09/13 03:10:49;;;;;;;5.70;3.35;;;14.20;92.70;;;;;;5031987;28;20053;-66
2021/09/13 03:13:15;;;;;;;2.90;2.55;;;14.20;92.70;;;;;;5031382;28;20567;-66
2021/09/13 03:15:41;;;;;;;3.70;2.50;;;14.20;92.60;;;;;;5031683;28;20025;-66
2021/09/13 03:18:06;;;;;;;3.97;2.72;;;14.20;92.60;;;;;;5032361;28;20167;-66
2021/09/13 03:20:32;;;;;;;5.28;2.90;;;14.20;92.60;;;;;;5031739;28;20093;-66
2021/09/13 03:22:58;;;;;;;3.20;2.83;;;14.20;92.60;;;;;;5031495;28;20453;-66
2021/09/13 03:25:24;;;;;;;3.80;3.10;;;14.20;92.60;;;;;;5031757;28;20100;-66
2021/09/13 03:27:50;;;;;;;5.38;2.80;;;14.20;92.80;;;;;;5022658;28;20022;-66
2021/09/13 03:30:16;;;;;;;3.80;3.00;;;14.20;92.60;;;;;;5014560;28;20049;-66
2021/09/13 03:32:41;;;;;;;3.70;2.72;;;14.20;92.60;;;;;;5011569;28;20026;-66
2021/09/13 03:35:08;;;;;;;4.35;3.33;;;14.20;92.70;;;;;;5011437;28;20611;-65
2021/09/13 03:37:33;;;;;;;3.30;3.00;;;14.20;92.60;;;;;;4995957;28;20022;-66
2021/09/13 03:39:59;;;;;;;4.25;3.33;;;14.20;92.60;;;;;;5031466;28;20056;-66
2021/09/13 03:42:24;;;;;;;4.38;3.08;;;14.10;92.50;;;;;;5031321;28;20036;-66
2021/09/13 03:44:50;;;;;;;7.20;4.47;;;14.10;92.60;;;;;;5029624;28;20505;-66
2021/09/13 03:47:16;;;;;;;13.90;6.32;;;14.10;92.60;;;;;;5031475;28;20044;-66
2021/09/13 03:49:41;;;;;;;6.15;4.13;;;14.10;92.60;;;;;;5031414;28;20089;-66
2021/09/13 03:52:08;;;;;;;4.95;3.60;;;14.00;92.60;;;;;;5028762;28;20036;-66
2021/09/13 03:54:35;;;;;;;4.03;3.40;;;13.90;92.70;;;;;;5030560;28;20302;-66
2021/09/13 03:57:01;;;;;;;4.72;3.78;;;13.90;92.80;;;;;;5031085;28;20035;-66
2021/09/13 03:59:26;;;;;;;4.85;3.38;;;13.80;92.70;;;;;;5031225;28;20100;-66
2021/09/13 04:01:52;;;;;;;5.60;3.50;;;13.80;92.80;;;;;;5031153;28;20029;-66
2021/09/13 04:04:22;;;;;;;6.47;3.92;;;13.70;92.80;;;;;;5030532;28;20033;-66
2021/09/13 04:06:51;;;;;;;4.05;3.65;;;13.60;92.80;;;;;;5030918;28;20112;-66
2021/09/13 04:12:00;;;;;;;3.33;3.03;;;13.50;93.00;;;;;;5031292;28;20029;-66
2021/09/13 04:14:29;;;;;;;4.38;2.97;;;13.50;93.10;;;;;;5012412;28;20029;-67
2021/09/13 04:16:55;;;;;;;5.32;2.97;;;13.60;93.10;;;;;;5013073;28;20032;-67
2021/09/13 04:19:22;;;;;;;3.35;2.78;;;13.60;93.10;;;;;;5030368;28;20440;-66
2021/09/13 04:21:48;;;;;;;4.75;2.92;;;13.60;93.10;;;;;;5030582;28;20391;-66
2021/09/13 04:24:14;;;;;;;4.90;3.25;;;13.70;93.10;;;;;;5030349;28;20021;-66
2021/09/13 04:26:40;;;;;;;5.07;3.10;;;13.70;93.00;;;;;;5030791;28;20021;-66
2021/09/13 04:29:06;;;;;;;4.75;3.33;;;13.70;93.00;;;;;;5030017;28;20037;-67
2021/09/13 04:31:32;;;;;;;8.00;3.40;;;13.60;92.90;;;;;;5030833;28;20052;-66
2021/09/13 04:33:57;;;;;;;5.07;3.80;;;13.60;92.90;;;;;;5030166;28;20021;-66
2021/09/13 04:36:23;;;;;;;4.88;3.20;;;13.50;93.00;;;;;;5030215;28;20029;-67
2021/09/13 04:38:49;;;;;;;3.60;3.00;;;13.50;93.00;;;;;;5013029;28;20026;-66
2021/09/13 04:41:15;;;;;;;3.45;2.70;;;13.40;93.10;;;;;;5030531;28;20087;-66
2021/09/13 04:43:40;;;;;;;6.38;3.20;;;13.50;93.20;;;;;;5029799;28;20032;-66
2021/09/13 04:46:06;;;;;;;3.00;2.80;;;13.50;93.10;;;;;;5029919;28;20466;-66
2021/09/13 04:48:31;;;;;;;9.95;3.90;;;13.50;93.10;;;;;;5030355;28;20096;-66
2021/09/13 04:50:57;;;;;;;5.18;3.42;;;13.50;93.10;;;;;;5027889;28;20508;-67
2021/09/13 04:53:23;;;;;;;4.45;3.38;;;13.40;93.10;;;;;;5011692;28;20031;-67
2021/09/13 04:55:48;;;;;;;3.88;3.03;;;13.40;93.00;;;;;;5030354;28;20026;-66
2021/09/13 04:58:14;;;;;;;4.22;3.33;;;13.40;93.10;;;;;;5030362;28;20033;-67
2021/09/13 05:00:40;;;;;;;5.82;3.30;;;13.40;93.10;;;;;;5030050;28;20026;-66
2021/09/13 05:03:06;;;;;;;3.63;3.33;;;13.30;93.10;;;;;;5030009;28;20022;-66
2021/09/13 05:05:32;;;;;;;4.05;3.60;;;13.30;93.10;;;;;;5029885;28;20037;-66
2021/09/13 05:07:57;;;;;;;3.72;3.10;;;13.30;93.20;;;;;;5029975;28;20775;-66
2021/09/13 05:10:23;;;;;;;4.43;3.58;;;13.30;93.20;;;;;;5030243;28;20034;-66
2021/09/13 05:12:49;;;;;;;5.97;2.88;;;13.30;93.10;;;;;;5029850;28;20030;-66
2021/09/13 05:15:14;;;;;;;3.63;3.33;;;13.30;93.10;;;;;;5029901;28;20466;-66
2021/09/13 05:17:40;;;;;;;4.32;3.10;;;13.30;93.10;;;;;;5030214;28;20033;-66
2021/09/13 05:20:07;;;;;;;4.30;3.60;;;13.30;93.10;;;;;;5029652;28;20030;-66
2021/09/13 05:22:32;;;;;;;4.47;3.25;;;13.40;93.10;;;;;;5029906;28;20482;-67
2021/09/13 05:24:58;;;;;;;3.90;3.25;;;13.40;93.10;;;;;;5030018;28;20033;-67
2021/09/13 05:27:23;;;;;;;5.65;3.65;;;13.40;93.10;;;;;;5027319;28;20026;-66
2021/09/13 05:29:49;;;;;;;5.75;4.00;;;13.40;93.20;;;;;;5012144;28;20036;-67
2021/09/13 05:32:15;;;;;;;8.43;3.67;;;13.40;93.20;;;;;;5029628;28;20036;-66
2021/09/13 05:34:41;;;;;;;3.60;3.30;;;13.40;93.20;;;;;;5029356;28;20034;-67
2021/09/13 05:37:06;;;;;;;5.90;4.18;;;13.40;93.20;;;;;;5029668;28;20038;-66
2021/09/13 05:39:32;;;;;;;5.50;3.88;;;13.40;93.20;;;;;;5030075;28;20033;-66
2021/09/13 05:41:58;;;;;;;5.32;3.65;;;13.40;93.30;;;;;;5029875;28;20021;-66
2021/09/13 05:44:24;;;;;;;5.45;3.95;;;13.40;93.40;;;;;;5030003;28;20117;-67
2021/09/13 05:46:51;;;;;;;5.30;4.40;;;13.40;93.40;;;;;;5029611;28;20034;-66
2021/09/13 05:49:16;;;;;;;9.25;4.50;;;13.40;93.40;;;;;;5011956;28;20052;-67
2021/09/13 05:51:53;;;;;;;4.72;4.15;;;13.40;93.50;;;;;;5029336;28;20446;-67
2021/09/13 05:54:25;;;;;;;6.15;3.70;;;13.40;93.50;;;;;;5011229;28;20076;-67
2021/09/13 05:56:55;;;;;;;4.13;3.50;;;13.40;93.60;;;;;;5030006;28;20113;-67
2021/09/13 05:59:22;;;;;;;5.72;3.75;;;13.50;93.70;;;;;;5033643;28;20030;-67
2021/09/13 06:01:48;;;;;;;7.40;4.00;;;13.50;93.70;;;;;;5033417;28;20083;-67
2021/09/13 06:04:14;;;;;;;6.53;4.00;;;13.50;93.70;;;;;;5033000;28;20064;-67
2021/09/13 06:06:40;;;;;;;6.60;3.63;;;13.50;93.70;;;;;;5032909;28;20455;-67
2021/09/13 06:09:06;;;;;;;6.88;3.42;;;13.60;93.70;;;;;;5015225;28;20120;-67
2021/09/13 06:11:32;;;;;;;5.55;3.30;;;13.60;93.80;;;;;;5033485;28;20477;-67
2021/09/13 06:13:58;;;;;;;4.60;3.83;;;13.70;93.80;;;;;;5032522;28;20029;-67
2021/09/13 06:16:23;;;;;;;4.53;3.45;;;13.80;93.80;;;;;;5033056;28;20091;-67
2021/09/13 06:18:49;;;;;;;4.00;3.60;;;13.80;93.80;;;;;;5015419;28;20044;-67
2021/09/13 06:21:15;;;;;;;6.57;4.43;;;13.90;93.70;;;;;;5033033;28;20025;-67
2021/09/13 06:23:41;;;;;;;4.82;4.40;;;13.90;93.70;;;;;;5032699;28;20056;-67
2021/09/13 06:26:06;;;;;;;6.13;5.00;;;14.00;93.70;;;;;;5026205;28;20026;-67
2021/09/13 06:28:32;;;;;;;6.70;5.07;;;14.00;93.70;;;;;;5012894;28;20028;-67
2021/09/13 06:30:57;;;;;;;6.60;4.70;;;14.00;93.80;;;;;;5013381;28;20026;-67
2021/09/13 06:33:23;;;;;;;6.53;4.88;;;14.00;93.90;;;;;;5013114;28;20065;-68
2021/09/13 06:35:48;;;;;;;6.22;4.88;;;14.10;93.80;;;;;;5018837;28;20030;-68
2021/09/13 06:38:14;;;;;;;5.22;4.20;;;14.10;93.80;;;;;;5033263;28;20022;-67
2021/09/13 06:40:40;;;;;;;5.03;4.45;;;14.10;93.90;;;;;;5015396;28;20686;-67
2021/09/13 06:43:07;;;;;;;5.22;4.57;;;14.20;94.00;;;;;;5032904;28;20469;-68
2021/09/13 06:45:41;;;;;;;9.38;4.95;;;14.20;94.00;;;;;;5034868;28;20017;-68
2021/09/13 06:48:09;;;;;;;4.80;4.22;;;14.30;94.00;;;;;;5037666;28;20029;-68
2021/09/13 06:50:34;;;;;;;6.88;5.13;;;14.30;94.10;;;;;;5032402;28;20424;-67
2021/09/13 06:53:00;;;;;;;5.72;4.53;;;14.40;94.10;;;;;;5032227;28;20092;-67
2021/09/13 06:55:26;;;;;;;5.78;4.95;;;14.50;94.10;;;;;;5032079;28;20037;-67
2021/09/13 06:57:51;;;;;;;6.03;4.88;;;14.50;94.10;;;;;;5032890;28;20466;-67
2021/09/13 07:00:19;;;;;;;4.95;4.07;;;14.60;94.10;;;;;;5031956;28;20411;-67
2021/09/13 07:02:46;;;;;;;6.45;4.80;;;14.70;94.10;;;;;;5032187;28;20025;-67
2021/09/13 07:05:12;;;;;;;6.07;4.95;;;14.80;94.10;;;;;;5031824;28;20106;-67
2021/09/13 07:07:38;;;;;;;4.85;4.45;;;14.90;94.10;;;;;;5032413;28;20029;-67
2021/09/13 07:10:06;;;;;;;7.18;5.60;;;14.90;94.10;;;;;;5031857;28;20163;-67
2021/09/13 07:12:33;;;;;;;5.20;4.70;;;15.10;94.10;;;;;;5031972;28;20485;-67
2021/09/13 07:14:59;;;;;;;17.55;5.55;;;15.30;94.10;;;;;;5032586;28;20026;-68
2021/09/13 07:17:24;;;;;;;6.95;4.65;;;15.50;94.00;;;;;;5031776;28;20034;-67
2021/09/13 07:19:51;;;;;;;8.07;4.20;;;15.70;93.90;;;;;;5031999;28;20489;-67
2021/09/13 07:22:20;;;;;;;5.22;4.40;;;16.10;93.70;;;;;;5031939;28;20022;-67
2021/09/13 07:24:46;;;;;;;4.22;3.70;;;16.70;93.30;;;;;;5031596;28;20101;-67
2021/09/13 07:27:13;;;;;;;4.07;3.47;;;17.10;93.20;;;;;;5023337;28;20032;-67
2021/09/13 07:29:40;;;;;;;4.55;3.67;;;17.50;92.60;;;;;;5023457;28;20037;-67
2021/09/13 07:32:06;;;;;;;6.45;3.80;;;17.90;92.20;;;;;;5031830;28;20025;-67
2021/09/13 07:34:31;;;;;;;7.72;4.15;;;18.30;91.70;;;;;;5031286;28;20469;-67
2021/09/13 07:36:57;;;;;;;7.15;3.40;;;18.70;91.40;;;;;;5031215;28;20032;-67
2021/09/13 07:39:25;;;;;;;5.43;3.83;;;19.10;91.10;;;;;;5031748;28;20462;-67
2021/09/13 07:41:50;;;;;;;4.43;3.17;;;19.60;90.60;;;;;;5031499;28;20072;-67
2021/09/13 07:44:16;;;;;;;6.88;3.38;;;20.20;90.20;;;;;;5031160;28;20386;-67
2021/09/13 07:46:42;;;;;;;5.88;3.08;;;20.70;89.20;;;;;;5031595;28;20021;-67
2021/09/13 07:49:08;;;;;;;3.58;2.83;;;21.30;88.30;;;;;;5031462;28;20109;-67
2021/09/13 07:51:33;;;;;;;5.07;2.70;;;21.90;86.60;;;;;;5026984;28;20040;-67
2021/09/13 07:53:59;;;;;;;6.82;2.58;;;22.50;85.30;;;;;;5017093;28;20044;-67
2021/09/13 07:56:25;;;;;;;4.35;2.70;;;23.00;83.90;;;;;;5031466;28;20096;-67
2021/09/13 07:58:50;;;;;;;3.72;2.53;;;23.30;82.30;;;;;;5031389;28;20037;-68
2021/09/13 08:01:16;;;;;;;3.47;2.40;;;23.50;81.70;;;;;;5031195;28;20677;-68
2021/09/13 08:03:41;;;;;;;4.38;2.28;;;23.60;81.60;;;;;;5030711;28;20045;-67
2021/09/13 08:06:08;;;;;;;4.03;2.50;;;23.80;81.20;;;;;;5031200;28;20022;-67
2021/09/13 08:08:34;;;;;;;4.20;2.67;;;23.50;81.60;;;;;;5031326;28;20029;-67
2021/09/13 08:11:00;;;;;;;3.10;2.90;;;23.80;81.00;;;;;;5031138;28;20022;-67
2021/09/13 08:13:26;;;;;;;4.80;3.05;;;24.10;80.40;;;;;;5030615;28;20052;-68
2021/09/13 08:15:51;;;;;;;46.92;29.98;;;24.20;79.50;;;;;;5030973;28;20041;-67
2021/09/13 08:18:17;;;;;;;11.27;6.45;;;24.30;79.10;;;;;;5031106;28;20025;-68
2021/09/13 08:20:43;;;;;;;6.28;3.75;;;24.50;79.20;;;;;;5012230;28;20021;-67
2021/09/13 08:23:08;;;;;;;9.65;6.28;;;24.50;79.00;;;;;;5012886;28;20378;-66
2021/09/13 08:25:34;;;;;;;6.07;4.30;;;24.40;79.70;;;;;;5030268;28;20039;-67
2021/09/13 08:27:59;;;;;;;3.78;3.35;;;24.40;79.80;;;;;;5016331;28;20104;-67
2021/09/13 08:30:26;;;;;;;5.45;2.97;;;24.40;79.80;;;;;;5010854;28;20030;-68
2021/09/13 08:32:52;;;;;;;4.97;2.75;;;24.40;79.80;;;;;;5011523;28;20113;-68
2021/09/13 08:35:18;;;;;;;3.33;3.00;;;24.40;80.20;;;;;;5011351;28;20105;-68
2021/09/13 08:37:44;;;;;;;6.45;2.70;;;24.40;80.30;;;;;;5019814;28;20057;-68
2021/09/13 08:40:10;;;;;;;4.10;2.58;;;24.30;80.00;;;;;;5096036;22;20081;-68
2021/09/13 08:42:45;;;;;;;2.90;2.30;;;24.40;80.40;;;;;;5011364;28;20513;-69
2021/09/13 08:45:13;;;;;;;2.67;2.30;;;24.40;79.70;;;;;;5011817;28;20030;-68
2021/09/13 08:47:51;;;;;;;3.75;2.50;;;24.30;79.30;;;;;;4994095;28;20397;-68
2021/09/13 08:53:20;;;;;;;3.53;2.33;;;24.20;79.60;;;;;;4996056;28;20091;-68
2021/09/13 08:55:49;;;;;;;2.47;2.10;;;24.30;79.80;;;;;;5030570;28;20596;-68
2021/09/13 08:58:17;;;;;;;2.35;2.17;;;24.30;78.70;;;;;;5029887;28;20021;-68
2021/09/13 09:00:43;;;;;;;2.70;2.10;;;24.10;77.40;;;;;;4992849;28;20026;-68
2021/09/13 09:03:10;;;;;;;4.47;2.00;;;23.90;78.70;;;;;;5010331;28;20105;-68
2021/09/13 09:05:41;;;;;;;2.47;2.13;;;23.90;78.20;;;;;;4993024;28;20382;-68
2021/09/13 09:08:10;;;;;;;3.08;1.92;;;23.90;78.10;;;;;;5010702;28;20478;-68
2021/09/13 09:10:36;;;;;;;2.17;1.60;;;24.00;78.20;;;;;;5010698;28;20371;-68
2021/09/13 09:13:01;;;;;;;2.10;1.85;;;24.00;78.50;;;;;;5010664;28;20152;-68
2021/09/13 09:15:29;;;;;;;2.75;2.22;;;24.00;78.90;;;;;;4992731;28;20509;-68
2021/09/13 09:17:56;;;;;;;4.07;3.30;;;24.20;78.30;;;;;;5010767;28;20091;-68
2021/09/13 09:20:22;;;;;;;2.60;2.40;;;24.30;78.50;;;;;;5010743;28;20505;-68
2021/09/13 09:23:02;;;;;;;4.20;1.85;;;24.30;78.10;;;;;;5010248;28;20538;-67
2021/09/13 09:25:33;;;;;;;2.25;1.70;;;24.40;76.80;;;;;;4993186;28;20394;-68
2021/09/13 09:28:12;;;;;;;3.13;2.00;;;24.30;75.90;;;;;;5024618;28;20052;-67
2021/09/13 09:30:40;;;;;;;18.23;4.70;;;24.10;76.40;;;;;;5030061;28;20040;-68
2021/09/13 09:33:07;;;;;;;3.00;2.17;;;24.00;77.40;;;;;;5033119;28;20036;-68
2021/09/13 09:35:41;;;;;;;2.33;1.98;;;24.10;77.00;;;;;;5034280;28;20068;-68
2021/09/13 09:38:25;;;;;;;2.65;1.80;;;24.20;76.50;;;;;;5033688;28;20025;-67
2021/09/13 09:41:01;;;;;;;3.40;1.50;;;24.30;76.80;;;;;;5014428;28;20053;-68
2021/09/13 09:43:29;;;;;;;2.47;2.10;;;24.40;76.20;;;;;;5013612;28;20037;-68
2021/09/13 09:45:55;;;;;;;2.95;2.10;;;24.50;76.60;;;;;;5014458;28;20053;-68
2021/09/13 09:48:29;;;;;;;3.13;1.77;;;24.50;77.40;;;;;;5000705;28;20068;-68
2021/09/13 09:50:54;;;;;;;1.63;1.52;;;24.70;77.50;;;;;;5034024;28;20369;-68
2021/09/13 09:53:21;;;;;;;1.73;1.50;;;24.90;77.20;;;;;;5009229;28;20025;-68
2021/09/13 09:55:52;;;;;;;2.63;1.55;;;25.00;75.40;;;;;;5033890;28;20057;-68
2021/09/13 09:58:18;;;;;;;2.25;1.50;;;24.80;73.90;;;;;;5033961;28;20048;-68
2021/09/13 10:00:45;;;;;;;3.13;1.50;;;24.60;75.20;;;;;;5033684;28;20032;-67
2021/09/13 10:03:26;;;;;;;5.68;2.53;;;24.60;76.30;;;;;;5033200;28;20384;-67
2021/09/13 10:05:51;;;;;;;2.50;1.63;;;24.60;75.50;;;;;;5033424;28;20048;-67
2021/09/13 10:08:17;;;;;;;2.45;1.77;;;24.70;75.10;;;;;;5015800;28;20089;-67
2021/09/13 10:10:43;;;;;;;3.80;1.58;;;24.60;73.80;;;;;;5015691;28;20128;-67
2021/09/13 10:13:08;;;;;;;2.25;1.27;;;24.30;74.60;;;;;;5031284;28;20501;-67
2021/09/13 10:15:34;;;;;;;3.22;1.58;;;24.40;74.80;;;;;;5033271;28;20389;-67
2021/09/13 10:18:00;;;;;;;4.78;1.65;;;24.40;74.60;;;;;;5033375;28;20377;-66
2021/09/13 10:20:26;;;;;;;2.80;1.40;;;24.50;75.70;;;;;;5013682;28;20052;-67
2021/09/13 10:22:54;;;;;;;1.90;1.70;;;24.70;76.10;;;;;;5032213;28;20060;-67
2021/09/13 10:25:20;;;;;;;1.83;1.65;;;24.90;75.00;;;;;;5015371;28;20029;-68
2021/09/13 10:27:47;;;;;;;4.70;1.80;;;24.90;73.80;;;;;;5033152;28;20056;-68
2021/09/13 10:30:16;;;;;;;2.30;2.10;;;24.80;74.30;;;;;;5032818;28;20057;-68
2021/09/13 10:32:43;;;;;;;1.75;1.60;;;24.80;75.10;;;;;;5015027;28;20393;-68
2021/09/13 10:35:10;;;;;;;2.88;1.50;;;24.70;75.00;;;;;;5015255;28;20481;-68
2021/09/13 10:37:51;;;;;;;1.80;1.70;;;24.60;73.70;;;;;;5031449;28;20083;-68
2021/09/13 10:40:17;;;;;;;2.70;1.50;;;24.50;72.00;;;;;;5033136;28;20055;-68
2021/09/13 10:42:50;;;;;;;1.83;1.65;;;24.20;72.40;;;;;;5014310;28;20101;-68
2021/09/13 10:45:34;;;;;;;3.55;1.60;;;23.90;72.30;;;;;;5015580;28;20040;-68
2021/09/13 10:48:01;;;;;;;3.25;1.30;;;23.70;74.50;;;;;;5013040;28;20080;-68
2021/09/13 10:50:40;;;;;;;5.65;1.83;;;23.70;75.80;;;;;;5013110;28;20026;-67
2021/09/13 10:53:18;;;;;;;2.05;1.85;;;23.70;74.80;;;;;;5025988;28;20047;-67
2021/09/13 10:55:48;;;;;;;2.55;1.58;;;23.80;74.80;;;;;;5032556;28;20029;-67
2021/09/13 10:58:18;;;;;;;2.55;1.73;;;23.90;75.10;;;;;;5009258;28;20504;-67
2021/09/13 11:00:43;;;;;;;5.28;1.70;;;24.00;74.00;;;;;;5012986;28;20022;-67
2021/09/13 11:08:38;;;;;;;6.28;1.90;;;24.20;72.80;;;;;;5013069;28;20030;-67
2021/09/13 11:11:13;;;;;;;7.05;2.20;;;24.10;72.80;;;;;;5012830;28;20025;-67
2021/09/13 11:13:39;;;;;;;3.95;1.73;;;24.20;73.60;;;;;;5023332;28;20029;-67
2021/09/13 11:16:06;;;;;;;1.55;1.42;;;24.30;73.70;;;;;;5014496;28;20053;-67
2021/09/13 11:18:41;;;;;;;2.70;1.60;;;24.30;73.80;;;;;;5014304;28;20029;-67
2021/09/13 11:21:20;;;;;;;3.20;1.60;;;24.40;73.70;;;;;;5032241;28;20445;-67
2021/09/13 11:23:51;;;;;;;2.30;1.60;;;24.60;74.20;;;;;;5031928;28;20028;-67
2021/09/13 11:26:18;;;;;;;2.20;1.50;;;24.70;73.50;;;;;;5032127;28;20112;-67
2021/09/13 11:28:53;;;;;;;1.67;1.40;;;24.80;73.30;;;;;;5029604;28;20040;-67
2021/09/13 11:31:33;;;;;;;1.50;1.40;;;25.10;72.70;;;;;;5032227;28;20021;-67
2021/09/13 11:33:59;;;;;;;2.60;1.50;;;25.20;72.50;;;;;;5031513;28;20381;-67
2021/09/13 11:36:26;;;;;;;1.50;1.40;;;25.40;73.40;;;;;;5032055;28;20017;-66
2021/09/13 11:39:01;;;;;;;8.13;7.20;;;25.60;72.40;;;;;;5031910;28;20116;-67
2021/09/13 11:41:27;;;;;;;3.25;2.25;;;25.80;71.90;;;;;;5031808;28;20025;-67
2021/09/13 11:44:06;;;;;;;2.08;1.52;;;26.00;71.60;;;;;;5030472;28;20428;-67
2021/09/13 11:46:50;;;;;;;1.88;1.63;;;25.90;70.30;;;;;;5032079;28;20029;-67
2021/09/13 11:49:18;;;;;;;3.95;1.70;;;26.00;71.10;;;;;;5031800;28;20022;-67
2021/09/13 11:52:04;;;;;;;5.00;1.80;;;26.10;72.00;;;;;;5011346;28;20386;-67
2021/09/13 11:54:30;;;;;;;4.22;1.50;;;26.10;71.20;;;;;;5029799;28;20446;-67
2021/09/13 11:56:56;;;;;;;1.58;1.48;;;26.20;71.50;;;;;;5028126;28;20474;-67
2021/09/13 11:59:23;;;;;;;4.50;1.67;;;26.30;71.10;;;;;;5012043;28;20158;-67
2021/09/13 12:02:02;;;;;;;1.63;1.42;;;26.40;70.80;;;;;;5012110;28;20047;-67
2021/09/13 12:04:29;;;;;;;4.18;1.50;;;26.50;70.10;;;;;;5011315;28;20033;-67
2021/09/13 12:07:09;;;;;;;3.05;1.60;;;26.50;69.50;;;;;;5011727;28;20033;-67
2021/09/13 12:09:36;;;;;;;3.08;1.60;;;26.60;69.20;;;;;;5011856;28;20493;-67
2021/09/13 12:12:03;;;;;;;3.78;1.50;;;26.60;69.80;;;;;;5011843;28;20045;-67
2021/09/13 12:14:30;;;;;;;7.22;1.58;;;26.70;70.40;;;;;;5011206;28;20025;-67
2021/09/13 12:17:11;;;;;;;3.08;1.38;;;26.70;69.50;;;;;;5011245;28;20451;-67
2021/09/13 12:19:39;;;;;;;4.57;1.63;;;26.70;69.90;;;;;;5011685;28;20022;-66
2021/09/13 12:22:06;;;;;;;2.13;1.80;;;26.60;69.60;;;;;;4993629;28;20030;-67
2021/09/13 12:24:33;;;;;;;4.05;1.75;;;26.40;69.90;;;;;;5010946;28;20026;-67
2021/09/13 12:27:22;;;;;;;2.35;1.60;;;26.30;69.60;;;;;;5019188;28;20040;-67
2021/09/13 12:30:04;;;;;;;4.85;1.73;;;26.30;69.90;;;;;;5030840;28;20021;-66
2021/09/13 12:32:33;;;;;;;2.03;1.60;;;26.30;69.70;;;;;;5028949;28;20029;-67
2021/09/13 12:35:01;;;;;;;3.42;1.73;;;26.40;70.00;;;;;;5030681;28;20025;-67
2021/09/13 12:37:32;;;;;;;2.08;1.77;;;26.50;69.10;;;;;;5030869;28;20018;-67
2021/09/13 12:40:12;;;;;;;1.40;1.30;;;26.60;68.60;;;;;;5030846;28;20536;-66
2021/09/13 12:42:50;;;;;;;1.40;1.30;;;26.70;68.60;;;;;;5030287;28;20018;-66
2021/09/13 12:45:16;;;;;;;5.43;1.70;;;26.90;68.20;;;;;;5030906;28;20031;-67
2021/09/13 12:47:50;;;;;;;1.88;1.50;;;26.90;68.90;;;;;;5026416;28;20034;-66
2021/09/13 12:50:33;;;;;;;3.78;1.60;;;26.80;68.30;;;;;;5010800;28;20875;-67
2021/09/13 12:53:30;;;;;;;2.22;1.85;;;26.70;68.40;;;;;;5016431;28;20021;-67
2021/09/13 12:55:58;;;;;;;1.55;1.45;;;26.50;68.50;;;;;;5008825;28;20508;-67
2021/09/13 12:58:34;;;;;;;1.52;1.42;;;26.20;68.70;;;;;;5020702;28;20045;-67